createdAt,value
2022-09-12T00:02:11.277Z,14.73
2022-09-12T00:04:45.535Z,14.75
2022-09-12T00:07:18.653Z,14.76
2022-09-12T00:09:52.299Z,14.77
2022-09-12T00:12:25.177Z,14.82
2022-09-12T00:14:58.100Z,14.83
2022-09-12T00:17:31.626Z,14.85
2022-09-12T00:20:08.338Z,14.86
2022-09-12T00:22:42.340Z,14.87
2022-09-12T00:25:15.674Z,14.88
2022-09-12T00:27:50.150Z,14.86
2022-09-12T00:30:23.212Z,14.88
2022-09-12T00:32:58.617Z,14.89
2022-09-12T00:35:31.646Z,14.89
2022-09-12T00:38:05.185Z,14.88
2022-09-12T00:40:40.436Z,14.89
2022-09-12T00:43:33.561Z,14.89
2022-09-12T00:46:26.334Z,14.91
2022-09-12T00:49:06.287Z,14.93
2022-09-12T00:51:40.829Z,14.94
2022-09-12T00:54:17.613Z,14.98
2022-09-12T00:56:51.119Z,15.00
2022-09-12T00:59:29.707Z,15.02
2022-09-12T01:02:03.035Z,15.05
2022-09-12T01:04:36.424Z,15.06
2022-09-12T01:07:10.273Z,15.07
2022-09-12T01:09:45.334Z,15.07
2022-09-12T01:12:18.080Z,15.09
2022-09-12T01:14:51.806Z,15.09
2022-09-12T01:17:24.753Z,15.11
2022-09-12T01:20:35.174Z,15.11
2022-09-12T01:23:33.842Z,15.11
2022-09-12T01:26:38.729Z,15.07
2022-09-12T01:29:25.694Z,15.04
2022-09-12T01:32:28.206Z,15.02
2022-09-12T01:35:41.796Z,15.00
2022-09-12T01:38:52.269Z,14.98
2022-09-12T01:41:54.941Z,14.95
2022-09-12T01:44:39.211Z,14.92
2022-09-12T01:47:24.518Z,14.88
2022-09-12T01:50:12.301Z,14.85
2022-09-12T01:53:04.970Z,14.85
2022-09-12T01:55:54.208Z,14.83
2022-09-12T01:58:31.418Z,14.77
2022-09-12T02:01:15.963Z,14.75
2022-09-12T02:04:11.289Z,14.70
2022-09-12T02:06:54.144Z,14.68
2022-09-12T02:09:56.120Z,14.63
2022-09-12T02:12:33.643Z,14.63
2022-09-12T02:15:09.041Z,14.65
2022-09-12T02:17:45.304Z,14.63
2022-09-12T02:20:47.069Z,14.63
2022-09-12T02:22:59.999Z,14.64
2022-09-12T02:25:33.754Z,14.65
2022-09-12T02:28:14.338Z,14.68
2022-09-12T02:31:02.125Z,14.68
2022-09-12T02:33:52.349Z,14.68
2022-09-12T02:36:50.499Z,14.67
2022-09-12T02:39:24.487Z,14.64
2022-09-12T02:41:59.232Z,14.62
2022-09-12T02:44:32.843Z,14.59
2022-09-12T02:47:17.527Z,14.56
2022-09-12T02:49:51.168Z,14.53
2022-09-12T02:52:24.853Z,14.48
2022-09-12T02:54:58.513Z,14.46
2022-09-12T02:57:32.838Z,14.45
2022-09-12T03:00:07.207Z,14.42
2022-09-12T03:02:53.814Z,14.39
2022-09-12T03:05:37.423Z,14.38
2022-09-12T03:08:42.458Z,14.37
2022-09-12T03:11:32.932Z,14.39
2022-09-12T03:14:20.069Z,14.40
2022-09-12T03:17:12.901Z,14.39
2022-09-12T03:20:14.876Z,14.39
2022-09-12T03:23:03.837Z,14.39
2022-09-12T03:25:44.953Z,14.40
2022-09-12T03:28:18.597Z,14.41
2022-09-12T03:30:53.728Z,14.43
2022-09-12T03:33:48.288Z,14.45
2022-09-12T03:36:25.097Z,14.43
2022-09-12T03:38:58.300Z,14.40
2022-09-12T03:41:31.166Z,14.37
2022-09-12T03:44:05.943Z,14.34
2022-09-12T03:46:37.989Z,14.29
2022-09-12T03:49:11.254Z,14.18
2022-09-12T03:51:45.958Z,14.03
2022-09-12T03:54:18.902Z,13.89
2022-09-12T03:56:51.783Z,13.76
2022-09-12T03:59:24.914Z,13.59
2022-09-12T04:01:59.314Z,13.43
2022-09-12T04:04:32.328Z,13.32
2022-09-12T04:07:05.290Z,13.25
2022-09-12T04:09:38.287Z,13.15
2022-09-12T04:12:11.212Z,13.06
2022-09-12T04:14:44.891Z,13.01
2022-09-12T04:17:17.700Z,12.99
2022-09-12T04:19:51.148Z,12.96
2022-09-12T04:22:24.461Z,12.92
2022-09-12T04:24:57.837Z,12.87
2022-09-12T04:27:31.237Z,12.81
2022-09-12T04:30:04.416Z,12.77
2022-09-12T04:32:38.199Z,12.76
2022-09-12T04:35:12.686Z,12.77
2022-09-12T04:37:46.611Z,12.79
2022-09-12T04:40:20.041Z,12.81
2022-09-12T04:42:53.171Z,12.80
2022-09-12T04:45:26.800Z,12.79
2022-09-12T04:48:00.218Z,12.81
2022-09-12T04:50:35.027Z,12.82
2022-09-12T04:53:08.014Z,12.85
2022-09-12T04:55:41.355Z,12.87
2022-09-12T04:58:14.363Z,12.90
2022-09-12T05:00:48.395Z,12.90
2022-09-12T05:03:21.076Z,12.92
2022-09-12T05:05:56.426Z,12.92
2022-09-12T05:08:29.219Z,12.92
2022-09-12T05:11:11.740Z,12.92
2022-09-12T05:13:45.236Z,12.93
2022-09-12T05:16:21.905Z,12.95
2022-09-12T05:18:54.939Z,12.97
2022-09-12T05:21:28.438Z,12.98
2022-09-12T05:24:02.856Z,13.00
2022-09-12T05:26:57.541Z,12.99
2022-09-12T05:29:34.845Z,12.93
2022-09-12T05:32:09.807Z,12.90
2022-09-12T05:34:42.221Z,12.91
2022-09-12T05:37:16.316Z,12.95
2022-09-12T05:39:50.447Z,12.95
2022-09-12T05:42:23.785Z,12.93
2022-09-12T05:44:58.901Z,12.97
2022-09-12T05:47:32.678Z,13.01
2022-09-12T05:50:07.873Z,13.02
2022-09-12T05:52:40.937Z,13.00
2022-09-12T05:55:24.713Z,13.00
2022-09-12T05:57:57.730Z,13.07
2022-09-12T06:00:33.527Z,13.18
2022-09-12T06:03:25.617Z,13.26
2022-09-12T06:05:58.464Z,13.33
2022-09-12T06:08:33.063Z,13.41
2022-09-12T06:11:06.231Z,13.46
2022-09-12T06:13:41.588Z,13.48
2022-09-12T06:16:18.298Z,13.48
2022-09-12T06:18:53.956Z,13.54
2022-09-12T06:21:28.870Z,13.60
2022-09-12T06:24:04.224Z,13.68
2022-09-12T06:26:39.750Z,13.70
2022-09-12T06:29:13.692Z,13.66
2022-09-12T06:31:47.230Z,13.65
2022-09-12T06:34:20.290Z,13.73
2022-09-12T06:36:54.463Z,13.87
2022-09-12T06:39:28.351Z,13.99
2022-09-12T06:42:01.215Z,14.11
2022-09-12T06:44:35.157Z,14.20
2022-09-12T06:47:10.031Z,14.31
2022-09-12T06:49:42.859Z,14.35
2022-09-12T06:52:15.925Z,14.40
2022-09-12T06:54:50.071Z,14.47
2022-09-12T06:57:23.516Z,14.50
2022-09-12T06:59:56.497Z,14.52
2022-09-12T07:02:30.743Z,14.54
2022-09-12T07:05:03.659Z,14.57
2022-09-12T07:07:38.507Z,14.57
2022-09-12T07:10:12.608Z,14.52
2022-09-12T07:12:46.094Z,14.53
2022-09-12T07:15:19.364Z,14.58
2022-09-12T07:17:52.899Z,14.61
2022-09-12T07:20:26.026Z,14.67
2022-09-12T07:22:59.246Z,14.74
2022-09-12T07:25:32.441Z,14.85
2022-09-12T07:28:05.969Z,15.01
2022-09-12T07:30:39.855Z,15.17
2022-09-12T07:33:12.822Z,15.32
2022-09-12T07:35:45.928Z,15.45
2022-09-12T07:38:19.042Z,15.57
2022-09-12T07:40:52.523Z,15.84
2022-09-12T07:43:26.401Z,16.38
2022-09-12T07:45:59.616Z,17.13
2022-09-12T07:48:32.731Z,17.78
2022-09-12T07:51:07.878Z,18.12
2022-09-12T07:53:43.721Z,18.21
2022-09-12T07:56:17.803Z,17.88
2022-09-12T07:58:50.950Z,17.66
2022-09-12T08:01:25.350Z,17.48
2022-09-12T08:04:21.861Z,17.32
2022-09-12T08:06:55.002Z,17.19
2022-09-12T08:09:28.726Z,17.05
2022-09-12T08:12:03.350Z,16.99
2022-09-12T08:14:35.886Z,17.06
2022-09-12T08:17:10.014Z,17.20
2022-09-12T08:19:45.215Z,17.37
2022-09-12T08:22:20.232Z,17.66
2022-09-12T08:24:53.981Z,18.09
2022-09-12T08:27:27.096Z,18.45
2022-09-12T08:30:00.902Z,18.51
2022-09-12T08:32:35.546Z,18.40
2022-09-12T08:35:09.714Z,18.18
2022-09-12T08:37:42.845Z,18.03
2022-09-12T08:40:20.734Z,17.86
2022-09-12T08:43:18.109Z,17.64
2022-09-12T08:46:01.635Z,17.36
2022-09-12T08:48:35.301Z,17.10
2022-09-12T08:51:12.517Z,16.95
2022-09-12T08:53:47.733Z,16.78
2022-09-12T08:56:21.106Z,16.69
2022-09-12T08:58:54.916Z,16.65
2022-09-12T09:01:42.774Z,16.57
2022-09-12T09:04:51.873Z,16.66
2022-09-12T09:07:45.964Z,16.82
2022-09-12T09:10:52.044Z,17.04
2022-09-12T09:14:03.047Z,17.20
2022-09-12T09:16:42.834Z,17.31
2022-09-12T09:19:24.216Z,17.34
2022-09-12T09:22:24.823Z,17.30
2022-09-12T09:25:01.230Z,17.22
2022-09-12T09:27:41.770Z,17.14
2022-09-12T09:30:20.820Z,17.05
2022-09-12T09:32:58.570Z,16.95
2022-09-12T09:35:50.802Z,16.81
2022-09-12T09:38:50.797Z,16.72
2022-09-12T09:42:09.606Z,16.68
2022-09-12T09:44:45.274Z,16.70
2022-09-12T09:47:19.985Z,16.79
2022-09-12T09:49:54.096Z,16.84
2022-09-12T09:52:31.201Z,16.92
2022-09-12T09:55:05.515Z,16.94
2022-09-12T09:57:42.099Z,16.92
2022-09-12T10:00:31.841Z,16.86
2022-09-12T10:03:15.289Z,16.80
2022-09-12T10:05:59.429Z,16.78
2022-09-12T10:08:35.720Z,16.77
2022-09-12T10:11:22.925Z,16.74
2022-09-12T10:14:02.025Z,16.67
2022-09-12T10:19:40.634Z,16.60
2022-09-12T10:22:34.308Z,16.58
2022-09-12T10:25:09.062Z,16.53
2022-09-12T10:27:43.952Z,16.37
2022-09-12T10:30:20.946Z,16.29
2022-09-12T10:32:55.762Z,16.25
2022-09-12T10:35:34.054Z,16.15
2022-09-12T10:38:28.251Z,15.93
2022-09-12T10:41:11.276Z,15.72
2022-09-12T10:43:44.920Z,15.59
2022-09-12T10:46:23.082Z,15.48
2022-09-12T10:49:22.737Z,15.42
2022-09-12T10:51:56.744Z,15.38
2022-09-12T10:54:30.502Z,15.37
2022-09-12T10:57:35.542Z,15.34
2022-09-12T11:00:18.092Z,15.27
2022-09-12T11:03:13.897Z,15.10
2022-09-12T11:06:03.508Z,15.03
2022-09-12T11:08:56.521Z,14.99
2022-09-12T11:11:59.445Z,14.99
2022-09-12T11:15:01.837Z,14.99
2022-09-12T11:17:54.094Z,14.94
2022-09-12T11:20:58.941Z,14.91
2022-09-12T11:24:02.619Z,14.82
2022-09-12T11:26:46.360Z,14.74
2022-09-12T11:29:52.037Z,14.67
2022-09-12T11:32:56.035Z,14.69
2022-09-12T11:35:34.674Z,14.73
2022-09-12T11:38:33.614Z,14.69
2022-09-12T11:41:12.861Z,14.64
2022-09-12T11:44:04.551Z,14.63
2022-09-12T11:46:46.655Z,14.66
2022-09-12T11:49:51.205Z,14.69
2022-09-12T11:52:29.712Z,14.75
2022-09-12T11:55:15.503Z,14.77
2022-09-12T11:58:00.656Z,14.79
2022-09-12T12:00:57.240Z,14.82
2022-09-12T12:03:46.654Z,14.82
2022-09-12T12:06:35.515Z,14.84
2022-09-12T12:09:08.835Z,14.87
2022-09-12T12:11:57.310Z,14.89
2022-09-12T12:14:44.101Z,14.91
2022-09-12T12:17:22.010Z,14.92
2022-09-12T12:20:07.682Z,14.96
2022-09-12T12:22:39.701Z,14.99
2022-09-12T12:25:22.368Z,15.06
2022-09-12T12:28:02.100Z,15.13
2022-09-12T12:30:58.380Z,15.17
2022-09-12T12:33:36.772Z,15.17
2022-09-12T12:36:14.548Z,15.21
2022-09-12T12:38:48.048Z,15.30
2022-09-12T12:41:25.655Z,15.33
2022-09-12T12:43:58.960Z,15.36
2022-09-12T12:46:32.067Z,15.40
2022-09-12T12:49:24.897Z,15.43
2022-09-12T12:52:02.907Z,15.45
2022-09-12T12:54:46.235Z,15.44
2022-09-12T12:57:33.625Z,15.42
2022-09-12T13:00:16.770Z,15.37
2022-09-12T13:02:59.977Z,15.28
2022-09-12T13:05:41.855Z,15.24
2022-09-12T13:08:29.246Z,15.19
2022-09-12T13:11:12.512Z,15.16
2022-09-12T13:13:54.541Z,15.15
2022-09-12T13:16:59.013Z,15.14
2022-09-12T13:19:35.449Z,15.13
2022-09-12T13:22:11.156Z,15.17
2022-09-12T13:24:52.071Z,15.17
2022-09-12T13:27:26.920Z,15.22
2022-09-12T13:30:17.073Z,15.25
2022-09-12T13:32:50.354Z,15.27
2022-09-12T13:35:38.263Z,15.29
2022-09-12T13:38:32.154Z,15.28
2022-09-12T13:41:18.459Z,15.28
2022-09-12T13:43:51.495Z,15.24
2022-09-12T13:46:30.710Z,15.23
2022-09-12T13:49:09.424Z,15.20
2022-09-12T13:51:42.835Z,15.19
2022-09-12T13:54:23.827Z,15.23
2022-09-12T13:56:54.933Z,15.22
2022-09-12T13:59:28.877Z,15.20
2022-09-12T14:02:02.017Z,15.20
2022-09-12T14:04:52.981Z,15.18
2022-09-12T14:07:26.529Z,15.21
2022-09-12T14:10:02.032Z,15.19
2022-09-12T14:12:43.720Z,15.16
2022-09-12T14:15:24.934Z,15.14
2022-09-12T14:18:01.728Z,15.11
2022-09-12T14:20:39.647Z,15.08
2022-09-12T14:23:33.984Z,15.04
2022-09-12T14:26:08.419Z,14.99
2022-09-12T14:28:50.381Z,14.93
2022-09-12T14:31:26.929Z,14.86
2022-09-12T14:34:16.473Z,14.81
2022-09-12T14:37:11.949Z,14.76
2022-09-12T14:39:45.966Z,14.69
2022-09-12T14:42:22.423Z,14.61
2022-09-12T14:45:06.238Z,14.56
2022-09-12T14:47:42.467Z,14.50
2022-09-12T14:50:40.422Z,14.47
2022-09-12T14:53:23.755Z,14.43
2022-09-12T14:56:14.107Z,14.41
2022-09-12T14:58:48.117Z,14.39
2022-09-12T15:01:24.934Z,14.39
2022-09-12T15:03:58.349Z,14.37
2022-09-12T15:06:37.133Z,14.33
2022-09-12T15:09:14.314Z,14.34
2022-09-12T15:11:47.760Z,14.33
2022-09-12T15:14:40.159Z,14.32
2022-09-12T15:17:13.116Z,14.27
2022-09-12T15:19:46.652Z,14.25
2022-09-12T15:22:21.106Z,14.22
2022-09-12T15:24:55.316Z,14.21
2022-09-12T15:27:28.312Z,14.21
2022-09-12T15:30:01.319Z,14.22
2022-09-12T15:32:35.327Z,14.24
2022-09-12T15:35:25.775Z,14.24
2022-09-12T15:37:58.997Z,14.20
2022-09-12T15:40:32.874Z,14.19
2022-09-12T15:43:07.193Z,14.20
2022-09-12T15:45:40.799Z,14.19
2022-09-12T15:48:15.300Z,14.22
2022-09-12T15:51:12.364Z,14.23
2022-09-12T15:53:43.761Z,14.21
2022-09-12T15:56:21.413Z,14.20
2022-09-12T15:58:59.563Z,14.20
2022-09-12T16:01:30.305Z,14.19
2022-09-12T16:04:04.747Z,14.18
2022-09-12T16:06:38.082Z,14.17
2022-09-12T16:09:16.118Z,14.16
2022-09-12T16:11:47.407Z,14.15
2022-09-12T16:14:21.044Z,14.15
2022-09-12T16:16:56.626Z,14.16
2022-09-12T16:22:13.505Z,14.17
2022-09-12T16:24:46.515Z,14.16
2022-09-12T16:27:20.017Z,14.15
2022-09-12T16:29:53.128Z,14.14
2022-09-12T16:32:46.951Z,14.12
2022-09-12T16:35:21.148Z,14.12
2022-09-12T16:37:53.968Z,14.10
2022-09-12T16:40:37.721Z,14.09
2022-09-12T16:43:10.926Z,14.05
2022-09-12T16:45:44.842Z,14.00
2022-09-12T16:48:18.241Z,14.00
2022-09-12T16:50:58.861Z,13.98
2022-09-12T16:53:33.947Z,13.97
2022-09-12T16:56:07.573Z,13.94
2022-09-12T16:58:42.336Z,13.96
2022-09-12T17:01:18.726Z,13.98
2022-09-12T17:03:58.272Z,13.98
2022-09-12T17:06:31.988Z,13.94
2022-09-12T17:09:05.822Z,13.93
2022-09-12T17:11:39.801Z,13.91
2022-09-12T17:14:14.744Z,13.93
2022-09-12T17:16:51.874Z,13.94
2022-09-12T17:22:13.278Z,13.98
2022-09-12T17:25:06.165Z,13.96
2022-09-12T17:27:41.029Z,13.97
2022-09-12T17:30:15.005Z,13.94
2022-09-12T17:32:48.072Z,13.92
2022-09-12T17:35:21.499Z,13.89
2022-09-12T17:37:55.039Z,13.84
2022-09-12T17:40:55.744Z,13.81
2022-09-12T17:43:04.241Z,13.82
2022-09-12T17:45:37.577Z,13.80
2022-09-12T17:48:12.992Z,13.80
2022-09-12T17:50:46.924Z,13.81
2022-09-12T17:53:20.468Z,13.82
2022-09-12T17:55:54.432Z,13.81
2022-09-12T17:58:29.810Z,13.80
2022-09-12T18:01:26.385Z,13.77
2022-09-12T18:04:01.924Z,13.74
2022-09-12T18:06:37.164Z,13.71
2022-09-12T18:09:11.873Z,13.67
2022-09-12T18:11:44.942Z,13.66
2022-09-12T18:14:19.781Z,13.62
2022-09-12T18:16:52.441Z,13.62
2022-09-12T18:19:26.905Z,13.61
2022-09-12T18:21:59.794Z,13.59
2022-09-12T18:24:34.333Z,13.59
2022-09-12T18:27:28.111Z,13.57
2022-09-12T18:30:20.607Z,13.54
2022-09-12T18:32:39.475Z,13.51
2022-09-12T18:35:13.158Z,13.49
2022-09-12T18:37:46.649Z,13.49
2022-09-12T18:40:21.395Z,13.49
2022-09-12T18:42:55.599Z,13.50
2022-09-12T18:45:29.270Z,13.51
2022-09-12T18:48:05.465Z,13.49
2022-09-12T18:50:39.170Z,13.50
2022-09-12T18:53:12.627Z,13.55
2022-09-12T18:55:45.629Z,13.55
2022-09-12T18:58:18.740Z,13.53
2022-09-12T19:00:52.400Z,13.56
2022-09-12T19:03:25.491Z,13.57
2022-09-12T19:05:59.284Z,13.59
2022-09-12T19:08:33.486Z,13.57
2022-09-12T19:11:06.550Z,13.55
2022-09-12T19:13:41.744Z,13.55
2022-09-12T19:16:20.585Z,13.57
2022-09-12T19:18:54.155Z,13.55
2022-09-12T19:21:48.910Z,13.53
2022-09-12T19:24:22.708Z,13.56
2022-09-12T19:26:56.299Z,13.58
2022-09-12T19:29:29.347Z,13.58
2022-09-12T19:32:02.519Z,13.54
2022-09-12T19:34:35.352Z,13.53
2022-09-12T19:37:09.163Z,13.53
2022-09-12T19:39:44.496Z,13.48
2022-09-12T19:42:17.762Z,13.43
2022-09-12T19:44:52.331Z,13.40
2022-09-12T19:47:28.862Z,13.39
2022-09-12T19:50:01.688Z,13.39
2022-09-12T19:52:34.859Z,13.36
2022-09-12T19:55:09.185Z,13.33
2022-09-12T19:57:42.182Z,13.29
2022-09-12T20:00:16.154Z,13.27
2022-09-12T20:02:53.974Z,13.23
2022-09-12T20:05:27.324Z,13.22
2022-09-12T20:08:00.634Z,13.20
2022-09-12T20:10:34.550Z,13.19
2022-09-12T20:13:09.244Z,13.19
2022-09-12T20:15:42.324Z,13.16
2022-09-12T20:18:15.812Z,13.17
2022-09-12T20:20:48.999Z,13.15
2022-09-12T20:23:24.085Z,13.12
2022-09-12T20:26:00.946Z,13.09
2022-09-12T20:28:35.080Z,13.10
2022-09-12T20:31:15.706Z,13.10
2022-09-12T20:33:52.148Z,13.09
2022-09-12T20:36:24.932Z,13.07
2022-09-12T20:39:02.641Z,13.06
2022-09-12T20:41:37.739Z,13.03
2022-09-12T20:44:11.379Z,13.01
2022-09-12T20:46:44.842Z,13.01
2022-09-12T20:49:17.752Z,13.01
2022-09-12T20:51:52.709Z,12.98
2022-09-12T20:54:26.140Z,12.97
2022-09-12T20:56:59.147Z,12.97
2022-09-12T20:59:35.309Z,12.96
2022-09-12T21:02:08.712Z,12.95
2022-09-12T21:04:41.924Z,12.96
2022-09-12T21:07:15.863Z,12.92
2022-09-12T21:09:49.520Z,12.92
2022-09-12T21:12:23.171Z,12.91
2022-09-12T21:14:57.555Z,12.91
2022-09-12T21:17:30.476Z,12.91
2022-09-12T21:20:07.982Z,12.90
2022-09-12T21:22:39.423Z,12.88
2022-09-12T21:25:14.254Z,12.87
2022-09-12T21:27:48.272Z,12.85
2022-09-12T21:30:21.231Z,12.86
2022-09-12T21:32:54.544Z,12.85
2022-09-12T21:35:28.538Z,12.85
2022-09-12T21:38:01.833Z,12.84
2022-09-12T21:40:34.999Z,12.84
2022-09-12T21:43:12.347Z,12.85
2022-09-12T21:45:43.347Z,12.85
2022-09-12T21:48:17.335Z,12.84
2022-09-12T21:50:53.940Z,12.89
2022-09-12T21:53:28.046Z,12.90
2022-09-12T21:56:08.953Z,12.90
2022-09-12T21:58:42.283Z,12.88
2022-09-12T22:01:16.326Z,12.87
2022-09-12T22:03:50.367Z,12.88
2022-09-12T22:06:25.092Z,12.88
2022-09-12T22:08:58.821Z,12.84
2022-09-12T22:11:32.063Z,12.78
2022-09-12T22:14:07.521Z,12.78
2022-09-12T22:16:41.868Z,12.79
2022-09-12T22:19:15.440Z,12.79
2022-09-12T22:22:06.952Z,12.78
2022-09-12T22:24:40.836Z,12.77
2022-09-12T22:27:14.762Z,12.77
2022-09-12T22:29:51.007Z,12.77
2022-09-12T22:32:24.198Z,12.78
2022-09-12T22:34:59.759Z,12.81
2022-09-12T22:37:32.734Z,12.80
2022-09-12T22:40:07.617Z,12.83
2022-09-12T22:42:44.443Z,12.82
2022-09-12T22:45:17.630Z,12.83
2022-09-12T22:47:51.667Z,12.83
2022-09-12T22:50:25.841Z,12.83
2022-09-12T22:52:58.937Z,12.83
2022-09-12T22:55:32.010Z,12.83
2022-09-12T22:58:05.247Z,12.83
2022-09-12T23:00:39.559Z,12.85
2022-09-12T23:03:11.945Z,12.87
2022-09-12T23:05:47.527Z,12.89
2022-09-12T23:08:20.971Z,12.88
2022-09-12T23:10:55.909Z,12.90
2022-09-12T23:13:29.204Z,12.90
2022-09-12T23:16:04.932Z,12.92
2022-09-12T23:18:38.181Z,12.94
2022-09-12T23:21:12.845Z,12.96
2022-09-12T23:23:45.834Z,13.01
2022-09-12T23:26:22.028Z,13.03
2022-09-12T23:28:58.706Z,13.04
2022-09-12T23:31:34.160Z,13.07
2022-09-12T23:34:07.409Z,13.09
2022-09-12T23:36:40.595Z,13.10
2022-09-12T23:39:17.094Z,13.12
2022-09-12T23:42:11.650Z,13.17
2022-09-12T23:44:45.330Z,13.20
2022-09-12T23:47:19.788Z,13.23
2022-09-12T23:49:52.782Z,13.27
2022-09-12T23:52:26.074Z,13.30
2022-09-12T23:54:59.556Z,13.31
2022-09-12T23:57:33.248Z,13.34
